»·PEaware :: UAL350 KSFO-KPHX

UAL350 :: KSFO-KPHX

FLIGHT INFORMATION

Flight Status: Arrived
Operator:
United Airlines
More flights by this operator :: More flights under this callsign
Pilot: Jeff H. (11722)
Aircraft: BOEING 757-200
(B752)
More flights by this aircraft type
Origin: KSFO San Francisco Intl
United States
Destination: KPHX Phoenix Sky Harbor Intl
United States
More flights between these airports :: More routes between these airports
Route: +SSTIK3 LOSHN BOILE BLH HYDDR1
File this flight plan on PilotEdge
Remarks:
Altitude:
(Current/Filed)
370ft
Speed:
(Current/Filed)
0kts
Departed: 20-Sep-17 04:55 PM
Arrived: 20-Sep-17 06:32 PM
Distance/Time
Traveled:
564nm/1:37
Distance/Time
To Go:
Arrived

Flight Plot

Page will automatically refresh every two minutes.

Flight plan parsing failed; only flown route is shown


Map Options




Map Legend


Flown Route
Filed Route
Departure Airport
Arrival Airport
Navaid (VOR, NDB)
Fix

Horizontal Profiles

Position Reports

Time Latitude Longitude Heading Altitude Ground
Speed
20-Sep-17 16:40 37.621238 -122.389232 210 34ft 0kts
20-Sep-17 16:41 37.621238 -122.389232 210 34ft 0kts
20-Sep-17 16:42 37.621238 -122.389232 210 34ft 0kts
20-Sep-17 16:43 37.621238 -122.389232 210 34ft 0kts
20-Sep-17 16:44 37.621238 -122.389232 210 34ft 0kts
20-Sep-17 16:45 37.621238 -122.389232 210 34ft 0kts
20-Sep-17 16:46 37.621238 -122.389232 210 34ft 0kts
20-Sep-17 16:47 37.621238 -122.389232 210 34ft 0kts
20-Sep-17 16:48 37.621238 -122.389232 210 34ft 0kts
20-Sep-17 16:49 37.621238 -122.389232 210 34ft 0kts
20-Sep-17 16:50 37.621238 -122.389232 210 34ft 0kts
20-Sep-17 16:51 37.621550 -122.388986 213 34ft 2kts
20-Sep-17 16:52 37.621811 -122.388851 170 34ft 0kts
20-Sep-17 16:53 37.621706 -122.388460 82 34ft 7kts
20-Sep-17 16:54 37.619954 -122.382844 118 34ft 25kts
20-Sep-17 16:55 37.615190 -122.380640 210 34ft 21kts
20-Sep-17 16:56 37.610569 -122.383597 215 35ft 16kts
20-Sep-17 16:57 37.609382 -122.383393 116 34ft 0kts
20-Sep-17 16:58 37.609044 -122.382353 82 33ft 7kts
20-Sep-17 16:59 37.635044 -122.366147 17 791ft 203kts
20-Sep-17 17:00 37.685185 -122.363952 335 2880ft 213kts
20-Sep-17 17:01 37.690436 -122.413480 216 4725ft 220kts
20-Sep-17 17:02 37.633257 -122.438110 198 6797ft 271kts
20-Sep-17 17:03 37.561116 -122.457566 196 8842ft 283kts
20-Sep-17 17:04 37.483467 -122.461089 154 10952ft 322kts
20-Sep-17 17:05 37.421405 -122.370693 131 13168ft 377kts
20-Sep-17 17:06 37.359864 -122.274262 132 15123ft 394kts
20-Sep-17 17:07 37.304250 -122.188075 132 16591ft 417kts
20-Sep-17 17:08 37.246306 -122.098725 133 18023ft 427kts
20-Sep-17 17:09 37.186360 -122.006956 133 19469ft 437kts
20-Sep-17 17:10 37.126150 -121.915306 133 20892ft 447kts
20-Sep-17 17:11 37.056380 -121.808700 133 22461ft 458kts
20-Sep-17 17:12 36.977787 -121.688907 133 24182ft 470kts
20-Sep-17 17:13 36.897686 -121.566493 133 25904ft 481kts
20-Sep-17 17:14 36.815170 -121.440560 133 27643ft 486kts
20-Sep-17 17:15 36.730465 -121.312820 133 29401ft 487kts
20-Sep-17 17:16 36.645439 -121.186099 134 31157ft 482kts
20-Sep-17 17:17 36.560610 -121.061294 135 32918ft 473kts
20-Sep-17 17:18 36.478920 -120.937658 135 34676ft 461kts
20-Sep-17 17:19 36.400677 -120.818773 136 36168ft 447kts
20-Sep-17 17:20 36.322019 -120.701223 136 36901ft 442kts
20-Sep-17 17:21 36.242980 -120.583666 136 36912ft 450kts
20-Sep-17 17:22 36.161980 -120.467076 134 36914ft 459kts
20-Sep-17 17:23 36.080707 -120.343997 136 36916ft 467kts
20-Sep-17 17:24 35.996760 -120.220313 136 36918ft 476kts
20-Sep-17 17:25 35.910806 -120.094400 136 36919ft 486kts
20-Sep-17 17:26 35.822498 -119.966316 136 36921ft 496kts
20-Sep-17 17:27 35.731730 -119.836708 136 36901ft 505kts
20-Sep-17 17:28 35.640207 -119.707493 136 36890ft 513kts
20-Sep-17 17:29 35.546664 -119.574889 137 36881ft 515kts
20-Sep-17 17:30 35.452683 -119.443631 137 36883ft 515kts
20-Sep-17 17:31 35.360016 -119.313522 137 36892ft 515kts
20-Sep-17 17:32 35.266728 -119.183840 137 36895ft 515kts
20-Sep-17 17:33 35.174442 -119.055328 137 36897ft 515kts
20-Sep-17 17:34 35.080189 -118.925266 137 36927ft 512kts
20-Sep-17 17:35 34.987671 -118.796786 137 36988ft 508kts
20-Sep-17 17:36 34.893990 -118.668266 136 36997ft 509kts
20-Sep-17 17:37 34.800391 -118.539622 136 36961ft 509kts
20-Sep-17 17:38 34.708848 -118.415180 136 36910ft 509kts
20-Sep-17 17:39 34.616757 -118.290037 136 36911ft 509kts
20-Sep-17 17:40 34.522682 -118.162798 136 36924ft 509kts
20-Sep-17 17:41 34.433255 -118.035029 124 36937ft 515kts
20-Sep-17 17:42 34.385667 -117.873932 107 36953ft 522kts
20-Sep-17 17:43 34.345890 -117.705442 108 36938ft 522kts
20-Sep-17 17:44 34.305266 -117.537464 108 36919ft 522kts
20-Sep-17 17:45 34.265313 -117.373656 108 36930ft 522kts
20-Sep-17 17:46 34.224085 -117.205275 108 36939ft 522kts
20-Sep-17 17:47 34.182809 -117.038065 108 36941ft 521kts
20-Sep-17 17:48 34.141505 -116.871507 108 36933ft 518kts
20-Sep-17 17:49 34.100714 -116.706315 108 36848ft 518kts
20-Sep-17 17:50 34.059153 -116.541016 108 36798ft 518kts
20-Sep-17 17:51 34.018120 -116.378619 108 36800ft 518kts
20-Sep-17 17:52 33.976023 -116.213605 109 36796ft 518kts
20-Sep-17 17:53 33.933412 -116.047846 108 36757ft 518kts
20-Sep-17 17:54 33.890971 -115.882859 109 36735ft 517kts
20-Sep-17 17:55 33.848780 -115.717583 109 36732ft 517kts
20-Sep-17 17:56 33.805936 -115.553281 109 36733ft 517kts
20-Sep-17 17:57 33.762596 -115.388627 109 36738ft 517kts
20-Sep-17 17:58 33.719055 -115.223921 109 36646ft 511kts
20-Sep-17 17:59 33.676685 -115.064551 109 34045ft 495kts
20-Sep-17 18:00 33.635569 -114.910368 110 31478ft 478kts
20-Sep-17 18:01 33.596270 -114.761699 108 28868ft 463kts
20-Sep-17 18:02 33.567533 -114.613953 105 26266ft 450kts
20-Sep-17 18:03 33.539505 -114.470593 106 23676ft 442kts
20-Sep-17 18:04 33.510534 -114.323515 105 22765ft 461kts
20-Sep-17 18:05 33.485748 -114.198941 106 22762ft 462kts
20-Sep-17 18:06 33.455776 -114.049673 105 22763ft 462kts
20-Sep-17 18:07 33.420754 -113.876172 106 22762ft 461kts
20-Sep-17 18:08 33.396478 -113.751673 105 21990ft 455kts
20-Sep-17 18:09 33.364721 -113.589436 106 20790ft 411kts
20-Sep-17 18:10 33.342924 -113.479089 106 20809ft 410kts
20-Sep-17 18:11 33.316573 -113.346415 106 20794ft 411kts
20-Sep-17 18:12 33.286443 -113.195330 106 18609ft 388kts
20-Sep-17 18:13 33.265961 -113.093163 106 17027ft 372kts
20-Sep-17 18:14 33.242328 -112.975847 106 15147ft 357kts
20-Sep-17 18:15 33.246481 -112.860116 80 14984ft 359kts
20-Sep-17 18:16 33.265129 -112.745342 82 14103ft 339kts
20-Sep-17 18:17 33.281752 -112.637093 82 12693ft 327kts
20-Sep-17 18:18 33.297771 -112.531796 82 11305ft 320kts
20-Sep-17 18:19 33.313511 -112.427643 82 10983ft 318kts
20-Sep-17 18:20 33.327329 -112.324272 87 10866ft 302kts
20-Sep-17 18:21 33.335847 -112.227292 86 9614ft 285kts
20-Sep-17 18:22 33.343988 -112.136552 86 8976ft 264kts
20-Sep-17 18:23 33.347207 -112.049123 93 8460ft 265kts
20-Sep-17 18:24 33.346107 -111.965123 93 7143ft 258kts
20-Sep-17 18:25 33.346338 -111.881477 92 6431ft 252kts
20-Sep-17 18:26 33.347767 -111.800072 92 5167ft 238kts
20-Sep-17 18:27 33.349047 -111.725850 92 5106ft 220kts
20-Sep-17 18:28 33.369455 -111.662549 12 5125ft 227kts
20-Sep-17 18:29 33.416722 -111.698645 307 5097ft 202kts
20-Sep-17 18:30 33.427724 -111.759550 272 5052ft 191kts
20-Sep-17 18:31 33.428415 -111.821089 272 4048ft 179kts
20-Sep-17 18:32 33.428635 -111.878735 272 3152ft 172kts
20-Sep-17 18:33 33.428739 -111.930570 272 2290ft 145kts
20-Sep-17 18:34 33.428751 -111.978195 271 1603ft 144kts
20-Sep-17 18:35 33.428868 -112.017788 267 1124ft 41kts
20-Sep-17 18:36 33.429954 -112.020262 90 1120ft 9kts
20-Sep-17 18:37 33.430536 -112.015819 32 1124ft 12kts
20-Sep-17 18:38 33.433315 -112.015217 11 1126ft 10kts
20-Sep-17 18:39 33.434436 -112.014667 84 1127ft 0kts

Navigation Log

Ident Type
Flight plan parsing failed, navigation log unavailable